sensor_id;sensor_type;location;lat;lon;timestamp;P1;durP1;ratioP1;P2;durP2;ratioP2
21315;SDS011;10817;55.820;13.030;2023-07-24T00:01:48;15.90;;;9.10;;
21315;SDS011;10817;55.820;13.030;2023-07-24T00:04:15;17.08;;;9.43;;
21315;SDS011;10817;55.820;13.030;2023-07-24T00:06:42;19.45;;;9.55;;
21315;SDS011;10817;55.820;13.030;2023-07-24T00:09:10;14.20;;;8.93;;
21315;SDS011;10817;55.820;13.030;2023-07-24T00:11:37;17.50;;;9.60;;
21315;SDS011;10817;55.820;13.030;2023-07-24T00:14:03;18.88;;;9.35;;
21315;SDS011;10817;55.820;13.030;2023-07-24T00:16:30;13.38;;;8.82;;
21315;SDS011;10817;55.820;13.030;2023-07-24T00:18:57;14.85;;;9.15;;
21315;SDS011;10817;55.820;13.030;2023-07-24T00:21:24;14.23;;;8.55;;
21315;SDS011;10817;55.820;13.030;2023-07-24T00:23:51;17.35;;;9.30;;
21315;SDS011;10817;55.820;13.030;2023-07-24T00:26:19;14.65;;;8.77;;
21315;SDS011;10817;55.820;13.030;2023-07-24T00:28:46;15.85;;;9.32;;
21315;SDS011;10817;55.820;13.030;2023-07-24T00:31:13;15.00;;;9.05;;
21315;SDS011;10817;55.820;13.030;2023-07-24T00:33:42;12.23;;;8.93;;
21315;SDS011;10817;55.820;13.030;2023-07-24T00:36:10;13.00;;;8.60;;
21315;SDS011;10817;55.820;13.030;2023-07-24T00:38:38;11.90;;;8.52;;
21315;SDS011;10817;55.820;13.030;2023-07-24T00:41:05;12.30;;;9.27;;
21315;SDS011;10817;55.820;13.030;2023-07-24T00:43:34;16.63;;;8.68;;
21315;SDS011;10817;55.820;13.030;2023-07-24T00:46:00;19.95;;;8.57;;
21315;SDS011;10817;55.820;13.030;2023-07-24T00:48:28;13.20;;;8.07;;
21315;SDS011;10817;55.820;13.030;2023-07-24T00:50:55;13.52;;;8.35;;
21315;SDS011;10817;55.820;13.030;2023-07-24T00:53:22;13.27;;;8.27;;
21315;SDS011;10817;55.820;13.030;2023-07-24T00:55:49;11.77;;;7.40;;
21315;SDS011;10817;55.820;13.030;2023-07-24T00:58:16;18.33;;;8.20;;
21315;SDS011;10817;55.820;13.030;2023-07-24T01:00:45;14.32;;;8.80;;
21315;SDS011;10817;55.820;13.030;2023-07-24T01:03:12;14.75;;;7.95;;
21315;SDS011;10817;55.820;13.030;2023-07-24T01:05:39;14.27;;;8.43;;
21315;SDS011;10817;55.820;13.030;2023-07-24T01:08:06;16.50;;;8.07;;
21315;SDS011;10817;55.820;13.030;2023-07-24T01:10:33;18.30;;;8.48;;
21315;SDS011;10817;55.820;13.030;2023-07-24T01:13:02;15.80;;;8.73;;
21315;SDS011;10817;55.820;13.030;2023-07-24T01:15:32;14.32;;;7.63;;
21315;SDS011;10817;55.820;13.030;2023-07-24T01:18:03;15.85;;;8.02;;
21315;SDS011;10817;55.820;13.030;2023-07-24T01:20:33;11.57;;;7.70;;
21315;SDS011;10817;55.820;13.030;2023-07-24T01:23:14;12.63;;;8.32;;
21315;SDS011;10817;55.820;13.030;2023-07-24T01:25:52;14.85;;;8.55;;
21315;SDS011;10817;55.820;13.030;2023-07-24T01:28:20;18.13;;;9.10;;
21315;SDS011;10817;55.820;13.030;2023-07-24T01:30:46;15.02;;;9.00;;
21315;SDS011;10817;55.820;13.030;2023-07-24T01:33:13;16.90;;;8.88;;
21315;SDS011;10817;55.820;13.030;2023-07-24T01:35:40;18.00;;;8.63;;
21315;SDS011;10817;55.820;13.030;2023-07-24T01:38:11;14.55;;;8.52;;
21315;SDS011;10817;55.820;13.030;2023-07-24T01:40:39;14.80;;;8.60;;
21315;SDS011;10817;55.820;13.030;2023-07-24T01:43:08;15.20;;;8.52;;
21315;SDS011;10817;55.820;13.030;2023-07-24T01:45:35;17.98;;;8.80;;
21315;SDS011;10817;55.820;13.030;2023-07-24T01:48:03;15.20;;;8.90;;
21315;SDS011;10817;55.820;13.030;2023-07-24T01:50:30;15.68;;;9.15;;
21315;SDS011;10817;55.820;13.030;2023-07-24T01:52:57;12.80;;;8.45;;
21315;SDS011;10817;55.820;13.030;2023-07-24T01:55:24;12.30;;;8.50;;
21315;SDS011;10817;55.820;13.030;2023-07-24T01:57:51;12.43;;;8.40;;
21315;SDS011;10817;55.820;13.030;2023-07-24T02:00:20;15.48;;;8.73;;
21315;SDS011;10817;55.820;13.030;2023-07-24T02:02:56;23.08;;;8.25;;
21315;SDS011;10817;55.820;13.030;2023-07-24T02:05:23;17.83;;;8.20;;
21315;SDS011;10817;55.820;13.030;2023-07-24T02:07:50;16.15;;;7.55;;
21315;SDS011;10817;55.820;13.030;2023-07-24T02:10:17;13.77;;;8.55;;
21315;SDS011;10817;55.820;13.030;2023-07-24T02:12:44;15.50;;;8.32;;
21315;SDS011;10817;55.820;13.030;2023-07-24T02:15:11;17.13;;;8.43;;
21315;SDS011;10817;55.820;13.030;2023-07-24T02:17:40;14.40;;;9.23;;
21315;SDS011;10817;55.820;13.030;2023-07-24T02:20:09;15.02;;;8.63;;
21315;SDS011;10817;55.820;13.030;2023-07-24T02:22:37;13.50;;;8.75;;
21315;SDS011;10817;55.820;13.030;2023-07-24T02:25:05;16.35;;;9.30;;
21315;SDS011;10817;55.820;13.030;2023-07-24T02:27:32;18.17;;;8.65;;
21315;SDS011;10817;55.820;13.030;2023-07-24T02:29:59;15.18;;;8.85;;
21315;SDS011;10817;55.820;13.030;2023-07-24T02:32:26;19.67;;;8.82;;
21315;SDS011;10817;55.820;13.030;2023-07-24T02:34:55;17.48;;;8.93;;
21315;SDS011;10817;55.820;13.030;2023-07-24T02:37:22;15.95;;;9.40;;
21315;SDS011;10817;55.820;13.030;2023-07-24T02:39:49;17.00;;;8.48;;
21315;SDS011;10817;55.820;13.030;2023-07-24T02:42:16;12.32;;;8.57;;
21315;SDS011;10817;55.820;13.030;2023-07-24T02:44:43;17.85;;;8.45;;
21315;SDS011;10817;55.820;13.030;2023-07-24T02:47:11;23.30;;;8.68;;
21315;SDS011;10817;55.820;13.030;2023-07-24T02:49:38;13.55;;;8.23;;
21315;SDS011;10817;55.820;13.030;2023-07-24T02:52:06;16.10;;;7.78;;
21315;SDS011;10817;55.820;13.030;2023-07-24T02:54:34;16.55;;;8.73;;
21315;SDS011;10817;55.820;13.030;2023-07-24T02:57:01;12.68;;;8.00;;
21315;SDS011;10817;55.820;13.030;2023-07-24T02:59:29;20.05;;;8.25;;
21315;SDS011;10817;55.820;13.030;2023-07-24T03:01:56;16.90;;;8.18;;
21315;SDS011;10817;55.820;13.030;2023-07-24T03:04:24;14.20;;;8.93;;
21315;SDS011;10817;55.820;13.030;2023-07-24T03:06:51;15.35;;;8.27;;
21315;SDS011;10817;55.820;13.030;2023-07-24T03:09:21;12.75;;;8.40;;
21315;SDS011;10817;55.820;13.030;2023-07-24T03:11:48;14.13;;;8.38;;
21315;SDS011;10817;55.820;13.030;2023-07-24T03:14:16;18.70;;;8.05;;
21315;SDS011;10817;55.820;13.030;2023-07-24T03:16:43;11.50;;;7.75;;
21315;SDS011;10817;55.820;13.030;2023-07-24T03:19:10;15.80;;;8.02;;
21315;SDS011;10817;55.820;13.030;2023-07-24T03:21:38;13.23;;;8.45;;
21315;SDS011;10817;55.820;13.030;2023-07-24T03:24:05;13.68;;;7.13;;
21315;SDS011;10817;55.820;13.030;2023-07-24T03:26:34;13.23;;;7.10;;
21315;SDS011;10817;55.820;13.030;2023-07-24T03:29:01;14.35;;;7.72;;
21315;SDS011;10817;55.820;13.030;2023-07-24T03:31:28;13.52;;;8.02;;
21315;SDS011;10817;55.820;13.030;2023-07-24T03:33:55;13.10;;;7.20;;
21315;SDS011;10817;55.820;13.030;2023-07-24T03:36:22;16.95;;;7.75;;
21315;SDS011;10817;55.820;13.030;2023-07-24T03:38:50;14.35;;;7.70;;
21315;SDS011;10817;55.820;13.030;2023-07-24T03:41:17;17.05;;;7.65;;
21315;SDS011;10817;55.820;13.030;2023-07-24T03:43:46;14.57;;;7.00;;
21315;SDS011;10817;55.820;13.030;2023-07-24T03:46:13;17.88;;;7.65;;
21315;SDS011;10817;55.820;13.030;2023-07-24T03:48:40;18.58;;;7.13;;
21315;SDS011;10817;55.820;13.030;2023-07-24T03:51:07;18.58;;;7.10;;
21315;SDS011;10817;55.820;13.030;2023-07-24T03:53:35;10.10;;;7.32;;
21315;SDS011;10817;55.820;13.030;2023-07-24T03:56:02;11.73;;;6.60;;
21315;SDS011;10817;55.820;13.030;2023-07-24T03:58:29;12.40;;;7.25;;
21315;SDS011;10817;55.820;13.030;2023-07-24T04:00:57;16.27;;;7.00;;
21315;SDS011;10817;55.820;13.030;2023-07-24T04:03:24;13.27;;;6.50;;
21315;SDS011;10817;55.820;13.030;2023-07-24T04:05:52;15.35;;;7.28;;
21315;SDS011;10817;55.820;13.030;2023-07-24T04:08:19;16.08;;;7.22;;
21315;SDS011;10817;55.820;13.030;2023-07-24T04:10:46;13.63;;;7.53;;
21315;SDS011;10817;55.820;13.030;2023-07-24T04:13:13;12.32;;;6.85;;
21315;SDS011;10817;55.820;13.030;2023-07-24T04:15:40;16.77;;;6.78;;
21315;SDS011;10817;55.820;13.030;2023-07-24T04:18:08;15.10;;;7.10;;
21315;SDS011;10817;55.820;13.030;2023-07-24T04:20:35;10.68;;;6.40;;
21315;SDS011;10817;55.820;13.030;2023-07-24T04:23:03;14.05;;;7.15;;
21315;SDS011;10817;55.820;13.030;2023-07-24T04:25:30;14.32;;;6.55;;
21315;SDS011;10817;55.820;13.030;2023-07-24T04:27:57;11.35;;;6.68;;
21315;SDS011;10817;55.820;13.030;2023-07-24T04:30:24;11.25;;;6.32;;
21315;SDS011;10817;55.820;13.030;2023-07-24T04:32:51;11.77;;;5.97;;
21315;SDS011;10817;55.820;13.030;2023-07-24T04:35:19;8.52;;;5.72;;
21315;SDS011;10817;55.820;13.030;2023-07-24T04:37:46;13.30;;;6.15;;
21315;SDS011;10817;55.820;13.030;2023-07-24T04:40:13;12.90;;;6.18;;
21315;SDS011;10817;55.820;13.030;2023-07-24T04:42:40;12.15;;;6.60;;
21315;SDS011;10817;55.820;13.030;2023-07-24T04:45:07;12.73;;;5.88;;
21315;SDS011;10817;55.820;13.030;2023-07-24T04:47:35;12.50;;;6.07;;
21315;SDS011;10817;55.820;13.030;2023-07-24T04:50:04;9.65;;;5.60;;
21315;SDS011;10817;55.820;13.030;2023-07-24T04:52:33;12.45;;;6.05;;
21315;SDS011;10817;55.820;13.030;2023-07-24T04:55:00;17.20;;;6.10;;
21315;SDS011;10817;55.820;13.030;2023-07-24T04:57:27;8.90;;;5.78;;
21315;SDS011;10817;55.820;13.030;2023-07-24T04:59:54;10.52;;;5.38;;
21315;SDS011;10817;55.820;13.030;2023-07-24T05:02:21;13.10;;;5.40;;
21315;SDS011;10817;55.820;13.030;2023-07-24T05:04:48;11.98;;;6.13;;
21315;SDS011;10817;55.820;13.030;2023-07-24T05:07:15;10.98;;;6.07;;
21315;SDS011;10817;55.820;13.030;2023-07-24T05:09:43;14.90;;;6.20;;
21315;SDS011;10817;55.820;13.030;2023-07-24T05:12:10;10.30;;;5.80;;
21315;SDS011;10817;55.820;13.030;2023-07-24T05:14:37;11.55;;;5.47;;
21315;SDS011;10817;55.820;13.030;2023-07-24T05:17:04;14.70;;;6.00;;
21315;SDS011;10817;55.820;13.030;2023-07-24T05:19:30;13.00;;;5.75;;
21315;SDS011;10817;55.820;13.030;2023-07-24T05:21:57;10.25;;;5.88;;
21315;SDS011;10817;55.820;13.030;2023-07-24T05:24:24;9.27;;;5.45;;
21315;SDS011;10817;55.820;13.030;2023-07-24T05:26:52;14.77;;;5.70;;
21315;SDS011;10817;55.820;13.030;2023-07-24T05:29:19;12.43;;;5.93;;
21315;SDS011;10817;55.820;13.030;2023-07-24T05:31:46;11.93;;;6.60;;
21315;SDS011;10817;55.820;13.030;2023-07-24T05:34:13;10.57;;;6.13;;
21315;SDS011;10817;55.820;13.030;2023-07-24T05:36:40;13.75;;;6.30;;
21315;SDS011;10817;55.820;13.030;2023-07-24T05:39:07;8.20;;;5.63;;
21315;SDS011;10817;55.820;13.030;2023-07-24T05:41:34;12.68;;;6.32;;
21315;SDS011;10817;55.820;13.030;2023-07-24T05:44:03;13.43;;;5.88;;
21315;SDS011;10817;55.820;13.030;2023-07-24T05:46:30;9.15;;;5.10;;
21315;SDS011;10817;55.820;13.030;2023-07-24T05:48:57;12.23;;;5.80;;
21315;SDS011;10817;55.820;13.030;2023-07-24T05:51:25;19.05;;;6.07;;
21315;SDS011;10817;55.820;13.030;2023-07-24T05:53:52;8.13;;;5.43;;
21315;SDS011;10817;55.820;13.030;2023-07-24T05:56:19;9.98;;;5.78;;
21315;SDS011;10817;55.820;13.030;2023-07-24T05:58:46;11.73;;;5.97;;
21315;SDS011;10817;55.820;13.030;2023-07-24T06:01:15;14.10;;;5.70;;
21315;SDS011;10817;55.820;13.030;2023-07-24T06:03:42;10.90;;;6.18;;
21315;SDS011;10817;55.820;13.030;2023-07-24T06:06:09;8.00;;;5.22;;
21315;SDS011;10817;55.820;13.030;2023-07-24T06:08:36;12.55;;;6.28;;
21315;SDS011;10817;55.820;13.030;2023-07-24T06:11:03;15.38;;;6.65;;
21315;SDS011;10817;55.820;13.030;2023-07-24T06:13:30;9.48;;;6.28;;
21315;SDS011;10817;55.820;13.030;2023-07-24T06:15:57;12.52;;;6.25;;
21315;SDS011;10817;55.820;13.030;2023-07-24T06:18:26;9.73;;;5.85;;
21315;SDS011;10817;55.820;13.030;2023-07-24T06:20:53;12.95;;;5.70;;
21315;SDS011;10817;55.820;13.030;2023-07-24T06:23:20;19.70;;;6.68;;
21315;SDS011;10817;55.820;13.030;2023-07-24T06:25:47;14.65;;;6.75;;
21315;SDS011;10817;55.820;13.030;2023-07-24T06:28:14;9.70;;;6.10;;
21315;SDS011;10817;55.820;13.030;2023-07-24T06:30:41;9.50;;;6.05;;
21315;SDS011;10817;55.820;13.030;2023-07-24T06:33:08;12.73;;;6.60;;
21315;SDS011;10817;55.820;13.030;2023-07-24T06:35:37;10.65;;;7.80;;
21315;SDS011;10817;55.820;13.030;2023-07-24T06:38:04;12.02;;;6.63;;
21315;SDS011;10817;55.820;13.030;2023-07-24T06:40:33;11.20;;;6.35;;
21315;SDS011;10817;55.820;13.030;2023-07-24T06:43:00;8.43;;;5.95;;
21315;SDS011;10817;55.820;13.030;2023-07-24T06:45:27;14.57;;;6.13;;
21315;SDS011;10817;55.820;13.030;2023-07-24T06:47:53;13.07;;;6.47;;
21315;SDS011;10817;55.820;13.030;2023-07-24T06:50:20;11.88;;;6.40;;
21315;SDS011;10817;55.820;13.030;2023-07-24T06:52:48;11.82;;;6.25;;
21315;SDS011;10817;55.820;13.030;2023-07-24T06:55:17;12.52;;;6.25;;
21315;SDS011;10817;55.820;13.030;2023-07-24T06:57:44;14.05;;;7.18;;
21315;SDS011;10817;55.820;13.030;2023-07-24T07:00:11;13.40;;;6.63;;
21315;SDS011;10817;55.820;13.030;2023-07-24T07:02:38;12.60;;;6.85;;
21315;SDS011;10817;55.820;13.030;2023-07-24T07:05:06;16.42;;;7.07;;
21315;SDS011;10817;55.820;13.030;2023-07-24T07:07:32;9.73;;;6.32;;
21315;SDS011;10817;55.820;13.030;2023-07-24T07:10:01;13.85;;;6.15;;
21315;SDS011;10817;55.820;13.030;2023-07-24T07:12:28;12.63;;;6.30;;
21315;SDS011;10817;55.820;13.030;2023-07-24T07:14:55;11.32;;;6.20;;
21315;SDS011;10817;55.820;13.030;2023-07-24T07:17:22;14.00;;;6.07;;
21315;SDS011;10817;55.820;13.030;2023-07-24T07:19:49;12.75;;;6.65;;
21315;SDS011;10817;55.820;13.030;2023-07-24T07:22:16;10.40;;;5.97;;
21315;SDS011;10817;55.820;13.030;2023-07-24T07:24:43;9.95;;;6.30;;
21315;SDS011;10817;55.820;13.030;2023-07-24T07:27:13;11.30;;;6.22;;
21315;SDS011;10817;55.820;13.030;2023-07-24T07:29:42;9.70;;;6.35;;
21315;SDS011;10817;55.820;13.030;2023-07-24T07:32:09;10.60;;;6.07;;
21315;SDS011;10817;55.820;13.030;2023-07-24T07:34:36;9.73;;;6.05;;
21315;SDS011;10817;55.820;13.030;2023-07-24T07:37:03;13.25;;;6.18;;
21315;SDS011;10817;55.820;13.030;2023-07-24T07:39:31;12.18;;;5.60;;
21315;SDS011;10817;55.820;13.030;2023-07-24T07:41:57;11.35;;;5.95;;
21315;SDS011;10817;55.820;13.030;2023-07-24T07:44:25;14.40;;;6.13;;
21315;SDS011;10817;55.820;13.030;2023-07-24T07:46:52;9.98;;;5.32;;
21315;SDS011;10817;55.820;13.030;2023-07-24T07:49:19;9.15;;;5.47;;
21315;SDS011;10817;55.820;13.030;2023-07-24T07:51:46;12.40;;;5.38;;
21315;SDS011;10817;55.820;13.030;2023-07-24T07:54:13;8.93;;;5.78;;
21315;SDS011;10817;55.820;13.030;2023-07-24T07:56:40;9.82;;;5.65;;
21315;SDS011;10817;55.820;13.030;2023-07-24T07:59:07;8.27;;;5.28;;
21315;SDS011;10817;55.820;13.030;2023-07-24T08:01:37;10.30;;;5.47;;
21315;SDS011;10817;55.820;13.030;2023-07-24T08:04:04;10.57;;;6.07;;
21315;SDS011;10817;55.820;13.030;2023-07-24T08:06:31;7.47;;;5.50;;
21315;SDS011;10817;55.820;13.030;2023-07-24T08:08:57;10.40;;;5.60;;
21315;SDS011;10817;55.820;13.030;2023-07-24T08:11:25;8.77;;;5.63;;
21315;SDS011;10817;55.820;13.030;2023-07-24T08:13:51;10.75;;;5.00;;
21315;SDS011;10817;55.820;13.030;2023-07-24T08:16:18;9.32;;;6.28;;
21315;SDS011;10817;55.820;13.030;2023-07-24T08:18:46;12.23;;;6.03;;
21315;SDS011;10817;55.820;13.030;2023-07-24T08:21:14;10.45;;;5.57;;
21315;SDS011;10817;55.820;13.030;2023-07-24T08:23:41;10.30;;;5.88;;
21315;SDS011;10817;55.820;13.030;2023-07-24T08:26:08;13.77;;;6.30;;
21315;SDS011;10817;55.820;13.030;2023-07-24T08:28:35;10.75;;;6.53;;
21315;SDS011;10817;55.820;13.030;2023-07-24T08:31:02;14.73;;;7.13;;
21315;SDS011;10817;55.820;13.030;2023-07-24T08:33:29;12.40;;;7.20;;
21315;SDS011;10817;55.820;13.030;2023-07-24T08:36:00;16.38;;;7.30;;
21315;SDS011;10817;55.820;13.030;2023-07-24T08:38:28;12.15;;;7.43;;
21315;SDS011;10817;55.820;13.030;2023-07-24T08:41:01;16.52;;;7.18;;
21315;SDS011;10817;55.820;13.030;2023-07-24T08:43:29;16.90;;;7.38;;
21315;SDS011;10817;55.820;13.030;2023-07-24T08:45:57;11.38;;;6.90;;
21315;SDS011;10817;55.820;13.030;2023-07-24T08:48:24;14.25;;;5.82;;
21315;SDS011;10817;55.820;13.030;2023-07-24T08:50:52;8.32;;;4.72;;
21315;SDS011;10817;55.820;13.030;2023-07-24T08:53:20;8.88;;;4.07;;
21315;SDS011;10817;55.820;13.030;2023-07-24T08:55:47;7.28;;;3.33;;
21315;SDS011;10817;55.820;13.030;2023-07-24T08:58:15;9.93;;;3.42;;
21315;SDS011;10817;55.820;13.030;2023-07-24T09:00:41;11.02;;;3.30;;
21315;SDS011;10817;55.820;13.030;2023-07-24T09:03:08;4.90;;;2.53;;
21315;SDS011;10817;55.820;13.030;2023-07-24T09:05:35;3.25;;;1.80;;
21315;SDS011;10817;55.820;13.030;2023-07-24T09:08:02;6.90;;;2.10;;
21315;SDS011;10817;55.820;13.030;2023-07-24T09:10:30;2.60;;;1.80;;
21315;SDS011;10817;55.820;13.030;2023-07-24T09:12:57;5.20;;;1.80;;
21315;SDS011;10817;55.820;13.030;2023-07-24T09:15:24;4.80;;;1.90;;
21315;SDS011;10817;55.820;13.030;2023-07-24T09:17:51;4.75;;;1.95;;
21315;SDS011;10817;55.820;13.030;2023-07-24T09:20:19;3.78;;;1.73;;
21315;SDS011;10817;55.820;13.030;2023-07-24T09:22:50;6.45;;;2.03;;
21315;SDS011;10817;55.820;13.030;2023-07-24T09:25:17;6.28;;;2.63;;
21315;SDS011;10817;55.820;13.030;2023-07-24T09:27:45;6.05;;;3.00;;
21315;SDS011;10817;55.820;13.030;2023-07-24T09:30:13;9.13;;;2.95;;
21315;SDS011;10817;55.820;13.030;2023-07-24T09:32:41;6.72;;;3.10;;
21315;SDS011;10817;55.820;13.030;2023-07-24T09:35:17;5.28;;;2.45;;
21315;SDS011;10817;55.820;13.030;2023-07-24T09:38:11;4.93;;;1.90;;
21315;SDS011;10817;55.820;13.030;2023-07-24T09:40:44;3.78;;;1.75;;
21315;SDS011;10817;55.820;13.030;2023-07-24T09:43:28;2.88;;;1.40;;
21315;SDS011;10817;55.820;13.030;2023-07-24T09:45:58;4.43;;;1.70;;
21315;SDS011;10817;55.820;13.030;2023-07-24T09:48:27;3.88;;;1.48;;
21315;SDS011;10817;55.820;13.030;2023-07-24T09:50:55;4.32;;;1.52;;
21315;SDS011;10817;55.820;13.030;2023-07-24T09:53:27;5.60;;;1.75;;
21315;SDS011;10817;55.820;13.030;2023-07-24T09:55:58;5.78;;;1.40;;
21315;SDS011;10817;55.820;13.030;2023-07-24T09:58:29;5.70;;;1.40;;
21315;SDS011;10817;55.820;13.030;2023-07-24T10:00:56;7.13;;;1.20;;
21315;SDS011;10817;55.820;13.030;2023-07-24T10:03:24;3.28;;;1.17;;
21315;SDS011;10817;55.820;13.030;2023-07-24T10:05:55;3.08;;;1.08;;
21315;SDS011;10817;55.820;13.030;2023-07-24T10:08:23;4.38;;;1.08;;
21315;SDS011;10817;55.820;13.030;2023-07-24T10:10:51;3.70;;;0.93;;
21315;SDS011;10817;55.820;13.030;2023-07-24T10:13:19;7.40;;;0.80;;
21315;SDS011;10817;55.820;13.030;2023-07-24T10:15:48;6.78;;;1.40;;
21315;SDS011;10817;55.820;13.030;2023-07-24T10:18:16;2.67;;;0.90;;
21315;SDS011;10817;55.820;13.030;2023-07-24T10:20:44;4.63;;;0.77;;
21315;SDS011;10817;55.820;13.030;2023-07-24T10:23:17;4.65;;;0.80;;
21315;SDS011;10817;55.820;13.030;2023-07-24T10:25:45;4.70;;;0.98;;
21315;SDS011;10817;55.820;13.030;2023-07-24T10:28:12;3.17;;;0.70;;
21315;SDS011;10817;55.820;13.030;2023-07-24T10:30:41;5.05;;;0.80;;
21315;SDS011;10817;55.820;13.030;2023-07-24T10:33:10;2.70;;;0.75;;
21315;SDS011;10817;55.820;13.030;2023-07-24T10:35:39;9.30;;;0.73;;
21315;SDS011;10817;55.820;13.030;2023-07-24T10:38:06;3.63;;;0.60;;
21315;SDS011;10817;55.820;13.030;2023-07-24T10:40:33;1.90;;;0.77;;
21315;SDS011;10817;55.820;13.030;2023-07-24T10:43:04;4.63;;;0.73;;
21315;SDS011;10817;55.820;13.030;2023-07-24T10:45:38;5.13;;;0.80;;
21315;SDS011;10817;55.820;13.030;2023-07-24T10:48:05;5.57;;;1.00;;
21315;SDS011;10817;55.820;13.030;2023-07-24T10:50:38;5.07;;;0.90;;
21315;SDS011;10817;55.820;13.030;2023-07-24T10:53:05;3.10;;;0.82;;
21315;SDS011;10817;55.820;13.030;2023-07-24T10:55:32;4.05;;;0.90;;
21315;SDS011;10817;55.820;13.030;2023-07-24T10:58:00;3.85;;;0.75;;
21315;SDS011;10817;55.820;13.030;2023-07-24T11:00:27;2.05;;;0.70;;
21315;SDS011;10817;55.820;13.030;2023-07-24T11:02:54;3.15;;;0.80;;
21315;SDS011;10817;55.820;13.030;2023-07-24T11:05:21;4.60;;;1.10;;
21315;SDS011;10817;55.820;13.030;2023-07-24T11:07:50;2.80;;;0.90;;
21315;SDS011;10817;55.820;13.030;2023-07-24T11:10:18;5.88;;;1.38;;
21315;SDS011;10817;55.820;13.030;2023-07-24T11:12:46;3.28;;;1.20;;
21315;SDS011;10817;55.820;13.030;2023-07-24T11:15:13;4.35;;;1.05;;
21315;SDS011;10817;55.820;13.030;2023-07-24T11:17:41;5.13;;;0.98;;
21315;SDS011;10817;55.820;13.030;2023-07-24T11:20:09;2.60;;;1.00;;
21315;SDS011;10817;55.820;13.030;2023-07-24T11:22:37;3.28;;;1.25;;
21315;SDS011;10817;55.820;13.030;2023-07-24T11:25:07;2.20;;;1.08;;
21315;SDS011;10817;55.820;13.030;2023-07-24T11:27:37;1.65;;;0.88;;
21315;SDS011;10817;55.820;13.030;2023-07-24T11:30:06;3.38;;;1.30;;
21315;SDS011;10817;55.820;13.030;2023-07-24T11:32:37;5.10;;;1.10;;
21315;SDS011;10817;55.820;13.030;2023-07-24T11:35:04;5.53;;;1.10;;
21315;SDS011;10817;55.820;13.030;2023-07-24T11:37:32;3.08;;;1.00;;
21315;SDS011;10817;55.820;13.030;2023-07-24T11:39:59;4.38;;;0.80;;
21315;SDS011;10817;55.820;13.030;2023-07-24T11:42:30;4.97;;;1.30;;
21315;SDS011;10817;55.820;13.030;2023-07-24T11:45:00;2.58;;;1.30;;
21315;SDS011;10817;55.820;13.030;2023-07-24T11:47:27;2.72;;;1.30;;
21315;SDS011;10817;55.820;13.030;2023-07-24T11:49:56;3.40;;;1.35;;
21315;SDS011;10817;55.820;13.030;2023-07-24T11:52:24;3.22;;;1.20;;
21315;SDS011;10817;55.820;13.030;2023-07-24T11:54:55;2.80;;;1.20;;
21315;SDS011;10817;55.820;13.030;2023-07-24T11:57:26;2.30;;;1.20;;
21315;SDS011;10817;55.820;13.030;2023-07-24T11:59:54;6.90;;;1.60;;
21315;SDS011;10817;55.820;13.030;2023-07-24T12:02:23;7.43;;;1.10;;
21315;SDS011;10817;55.820;13.030;2023-07-24T12:04:55;2.65;;;0.90;;
21315;SDS011;10817;55.820;13.030;2023-07-24T12:07:28;5.18;;;1.00;;
21315;SDS011;10817;55.820;13.030;2023-07-24T12:09:55;3.72;;;1.10;;
21315;SDS011;10817;55.820;13.030;2023-07-24T12:12:23;3.97;;;1.00;;
21315;SDS011;10817;55.820;13.030;2023-07-24T12:14:50;6.97;;;1.50;;
21315;SDS011;10817;55.820;13.030;2023-07-24T12:17:19;3.50;;;1.00;;
21315;SDS011;10817;55.820;13.030;2023-07-24T12:19:46;2.28;;;0.98;;
21315;SDS011;10817;55.820;13.030;2023-07-24T12:22:14;5.50;;;1.33;;
21315;SDS011;10817;55.820;13.030;2023-07-24T12:24:41;2.40;;;0.90;;
21315;SDS011;10817;55.820;13.030;2023-07-24T12:27:08;6.05;;;0.90;;
21315;SDS011;10817;55.820;13.030;2023-07-24T12:29:35;4.25;;;0.88;;
21315;SDS011;10817;55.820;13.030;2023-07-24T12:32:02;4.70;;;1.13;;
21315;SDS011;10817;55.820;13.030;2023-07-24T12:34:31;6.47;;;1.00;;
21315;SDS011;10817;55.820;13.030;2023-07-24T12:36:58;2.78;;;0.98;;
21315;SDS011;10817;55.820;13.030;2023-07-24T12:39:25;3.55;;;1.00;;
21315;SDS011;10817;55.820;13.030;2023-07-24T12:41:52;3.95;;;1.17;;
21315;SDS011;10817;55.820;13.030;2023-07-24T12:44:20;3.15;;;0.80;;
21315;SDS011;10817;55.820;13.030;2023-07-24T12:46:47;3.10;;;1.00;;
21315;SDS011;10817;55.820;13.030;2023-07-24T12:49:14;4.82;;;0.90;;
21315;SDS011;10817;55.820;13.030;2023-07-24T12:51:42;2.63;;;0.90;;
21315;SDS011;10817;55.820;13.030;2023-07-24T12:54:09;2.00;;;1.00;;
21315;SDS011;10817;55.820;13.030;2023-07-24T12:56:37;5.30;;;0.90;;
21315;SDS011;10817;55.820;13.030;2023-07-24T12:59:04;2.97;;;1.08;;
21315;SDS011;10817;55.820;13.030;2023-07-24T13:01:31;5.15;;;0.95;;
21315;SDS011;10817;55.820;13.030;2023-07-24T13:03:58;2.10;;;0.88;;
21315;SDS011;10817;55.820;13.030;2023-07-24T13:06:25;6.85;;;1.20;;
21315;SDS011;10817;55.820;13.030;2023-07-24T13:08:54;4.03;;;1.50;;
21315;SDS011;10817;55.820;13.030;2023-07-24T13:11:21;2.03;;;1.00;;
21315;SDS011;10817;55.820;13.030;2023-07-24T13:13:48;9.27;;;1.10;;
21315;SDS011;10817;55.820;13.030;2023-07-24T13:16:16;3.42;;;1.10;;
21315;SDS011;10817;55.820;13.030;2023-07-24T13:18:43;3.40;;;1.20;;
21315;SDS011;10817;55.820;13.030;2023-07-24T13:21:10;4.45;;;1.02;;
21315;SDS011;10817;55.820;13.030;2023-07-24T13:23:39;4.00;;;1.10;;
21315;SDS011;10817;55.820;13.030;2023-07-24T13:26:07;3.40;;;1.15;;
21315;SDS011;10817;55.820;13.030;2023-07-24T13:28:35;2.45;;;1.13;;
21315;SDS011;10817;55.820;13.030;2023-07-24T13:31:10;3.55;;;0.90;;
21315;SDS011;10817;55.820;13.030;2023-07-24T13:33:37;3.92;;;0.90;;
21315;SDS011;10817;55.820;13.030;2023-07-24T13:36:05;5.00;;;0.93;;
21315;SDS011;10817;55.820;13.030;2023-07-24T13:38:32;4.55;;;1.35;;
21315;SDS011;10817;55.820;13.030;2023-07-24T13:40:59;2.65;;;1.08;;
21315;SDS011;10817;55.820;13.030;2023-07-24T13:43:29;3.85;;;0.90;;
21315;SDS011;10817;55.820;13.030;2023-07-24T13:45:56;3.55;;;1.05;;
21315;SDS011;10817;55.820;13.030;2023-07-24T13:48:23;2.58;;;1.13;;
21315;SDS011;10817;55.820;13.030;2023-07-24T13:50:51;3.35;;;1.17;;
21315;SDS011;10817;55.820;13.030;2023-07-24T13:53:18;2.92;;;1.02;;
21315;SDS011;10817;55.820;13.030;2023-07-24T13:55:45;5.65;;;1.27;;
21315;SDS011;10817;55.820;13.030;2023-07-24T13:58:12;5.13;;;1.33;;
21315;SDS011;10817;55.820;13.030;2023-07-24T14:00:41;2.90;;;0.88;;
21315;SDS011;10817;55.820;13.030;2023-07-24T14:03:08;3.22;;;1.20;;
21315;SDS011;10817;55.820;13.030;2023-07-24T14:05:35;4.15;;;0.90;;
21315;SDS011;10817;55.820;13.030;2023-07-24T14:08:02;5.35;;;1.00;;
21315;SDS011;10817;55.820;13.030;2023-07-24T14:10:29;2.60;;;0.98;;
21315;SDS011;10817;55.820;13.030;2023-07-24T14:12:56;4.15;;;0.90;;
21315;SDS011;10817;55.820;13.030;2023-07-24T14:15:24;6.82;;;1.15;;
21315;SDS011;10817;55.820;13.030;2023-07-24T14:17:52;2.55;;;0.80;;
21315;SDS011;10817;55.820;13.030;2023-07-24T14:20:20;1.73;;;0.88;;
21315;SDS011;10817;55.820;13.030;2023-07-24T14:22:47;2.83;;;1.00;;
21315;SDS011;10817;55.820;13.030;2023-07-24T14:25:14;1.85;;;0.80;;
21315;SDS011;10817;55.820;13.030;2023-07-24T14:27:41;2.10;;;0.80;;
21315;SDS011;10817;55.820;13.030;2023-07-24T14:30:08;3.17;;;1.20;;
21315;SDS011;10817;55.820;13.030;2023-07-24T14:32:36;5.97;;;1.10;;